sensor_id;sensor_type;location;lat;lon;timestamp;P1;durP1;ratioP1;P2;durP2;ratioP2
29906;SDS011;16776;50.958;10.994;2023-09-19T00:00:16;0.30;;;0.30;;
29906;SDS011;16776;50.958;10.994;2023-09-19T00:02:44;0.85;;;0.70;;
29906;SDS011;16776;50.958;10.994;2023-09-19T00:05:12;1.38;;;0.40;;
29906;SDS011;16776;50.958;10.994;2023-09-19T00:07:39;1.17;;;0.60;;
29906;SDS011;16776;50.958;10.994;2023-09-19T00:10:06;0.40;;;0.30;;
29906;SDS011;16776;50.958;10.994;2023-09-19T00:12:34;0.43;;;0.35;;
29906;SDS011;16776;50.958;10.994;2023-09-19T00:15:01;0.32;;;0.32;;
29906;SDS011;16776;50.958;10.994;2023-09-19T00:17:32;0.52;;;0.30;;
29906;SDS011;16776;50.958;10.994;2023-09-19T00:19:59;1.38;;;0.40;;
29906;SDS011;16776;50.958;10.994;2023-09-19T00:22:32;0.40;;;0.40;;
29906;SDS011;16776;50.958;10.994;2023-09-19T00:24:58;0.70;;;0.50;;
29906;SDS011;16776;50.958;10.994;2023-09-19T00:27:25;0.50;;;0.30;;
29906;SDS011;16776;50.958;10.994;2023-09-19T00:29:53;1.27;;;0.40;;
29906;SDS011;16776;50.958;10.994;2023-09-19T00:32:19;0.52;;;0.50;;
29906;SDS011;16776;50.958;10.994;2023-09-19T00:34:47;0.50;;;0.50;;
29906;SDS011;16776;50.958;10.994;2023-09-19T00:37:14;1.40;;;0.50;;
29906;SDS011;16776;50.958;10.994;2023-09-19T00:39:43;0.80;;;0.40;;
29906;SDS011;16776;50.958;10.994;2023-09-19T00:42:09;0.40;;;0.40;;
29906;SDS011;16776;50.958;10.994;2023-09-19T00:44:45;0.38;;;0.38;;
29906;SDS011;16776;50.958;10.994;2023-09-19T00:47:12;0.57;;;0.50;;
29906;SDS011;16776;50.958;10.994;2023-09-19T00:49:42;0.93;;;0.80;;
29906;SDS011;16776;50.958;10.994;2023-09-19T00:52:10;0.32;;;0.30;;
29906;SDS011;16776;50.958;10.994;2023-09-19T00:54:38;0.85;;;0.28;;
29906;SDS011;16776;50.958;10.994;2023-09-19T00:57:05;0.30;;;0.30;;
29906;SDS011;16776;50.958;10.994;2023-09-19T00:59:33;0.30;;;0.30;;
29906;SDS011;16776;50.958;10.994;2023-09-19T01:02:00;0.30;;;0.30;;
29906;SDS011;16776;50.958;10.994;2023-09-19T01:04:29;0.85;;;0.30;;
29906;SDS011;16776;50.958;10.994;2023-09-19T01:06:57;0.52;;;0.40;;
29906;SDS011;16776;50.958;10.994;2023-09-19T01:09:25;0.22;;;0.22;;
29906;SDS011;16776;50.958;10.994;2023-09-19T01:11:53;0.70;;;0.40;;
29906;SDS011;16776;50.958;10.994;2023-09-19T01:14:29;0.25;;;0.25;;
29906;SDS011;16776;50.958;10.994;2023-09-19T01:17:00;0.30;;;0.30;;
29906;SDS011;16776;50.958;10.994;2023-09-19T01:22:35;0.35;;;0.20;;
29906;SDS011;16776;50.958;10.994;2023-09-19T01:28:24;0.35;;;0.28;;
29906;SDS011;16776;50.958;10.994;2023-09-19T01:30:59;0.32;;;0.28;;
29906;SDS011;16776;50.958;10.994;2023-09-19T01:33:28;0.55;;;0.20;;
29906;SDS011;16776;50.958;10.994;2023-09-19T01:36:16;0.30;;;0.30;;
29906;SDS011;16776;50.958;10.994;2023-09-19T01:38:42;1.13;;;0.50;;
29906;SDS011;16776;50.958;10.994;2023-09-19T01:41:11;0.55;;;0.40;;
29906;SDS011;16776;50.958;10.994;2023-09-19T01:43:42;0.50;;;0.22;;
29906;SDS011;16776;50.958;10.994;2023-09-19T01:46:14;0.20;;;0.20;;
29906;SDS011;16776;50.958;10.994;2023-09-19T01:48:49;1.85;;;0.52;;
29906;SDS011;16776;50.958;10.994;2023-09-19T01:51:27;0.10;;;0.10;;
29906;SDS011;16776;50.958;10.994;2023-09-19T01:54:01;0.20;;;0.20;;
29906;SDS011;16776;50.958;10.994;2023-09-19T01:56:32;0.52;;;0.35;;
29906;SDS011;16776;50.958;10.994;2023-09-19T01:59:04;1.17;;;0.28;;
29906;SDS011;16776;50.958;10.994;2023-09-19T02:01:35;0.30;;;0.20;;
29906;SDS011;16776;50.958;10.994;2023-09-19T02:04:03;1.05;;;0.40;;
29906;SDS011;16776;50.958;10.994;2023-09-19T02:06:30;0.85;;;0.30;;
29906;SDS011;16776;50.958;10.994;2023-09-19T02:08:59;0.30;;;0.30;;
29906;SDS011;16776;50.958;10.994;2023-09-19T02:11:25;0.55;;;0.55;;
29906;SDS011;16776;50.958;10.994;2023-09-19T02:13:52;0.25;;;0.25;;
29906;SDS011;16776;50.958;10.994;2023-09-19T02:16:19;0.22;;;0.22;;
29906;SDS011;16776;50.958;10.994;2023-09-19T02:18:48;0.38;;;0.25;;
29906;SDS011;16776;50.958;10.994;2023-09-19T02:21:15;0.43;;;0.30;;
29906;SDS011;16776;50.958;10.994;2023-09-19T02:23:42;0.30;;;0.30;;
29906;SDS011;16776;50.958;10.994;2023-09-19T02:26:08;1.00;;;0.38;;
29906;SDS011;16776;50.958;10.994;2023-09-19T02:28:37;0.30;;;0.30;;
29906;SDS011;16776;50.958;10.994;2023-09-19T02:31:04;0.40;;;0.40;;
29906;SDS011;16776;50.958;10.994;2023-09-19T02:33:31;0.50;;;0.50;;
29906;SDS011;16776;50.958;10.994;2023-09-19T02:35:59;0.35;;;0.30;;
29906;SDS011;16776;50.958;10.994;2023-09-19T02:38:29;0.30;;;0.30;;
29906;SDS011;16776;50.958;10.994;2023-09-19T02:40:56;0.40;;;0.25;;
29906;SDS011;16776;50.958;10.994;2023-09-19T02:43:22;0.30;;;0.30;;
29906;SDS011;16776;50.958;10.994;2023-09-19T02:45:50;0.30;;;0.30;;
29906;SDS011;16776;50.958;10.994;2023-09-19T02:48:18;0.77;;;0.40;;
29906;SDS011;16776;50.958;10.994;2023-09-19T02:50:45;0.47;;;0.47;;
29906;SDS011;16776;50.958;10.994;2023-09-19T02:53:13;0.50;;;0.38;;
29906;SDS011;16776;50.958;10.994;2023-09-19T02:55:40;0.47;;;0.28;;
29906;SDS011;16776;50.958;10.994;2023-09-19T02:58:07;0.60;;;0.40;;
29906;SDS011;16776;50.958;10.994;2023-09-19T03:00:36;0.85;;;0.30;;
29906;SDS011;16776;50.958;10.994;2023-09-19T03:03:02;0.57;;;0.40;;
29906;SDS011;16776;50.958;10.994;2023-09-19T03:05:31;0.50;;;0.40;;
29906;SDS011;16776;50.958;10.994;2023-09-19T03:07:58;1.42;;;0.25;;
29906;SDS011;16776;50.958;10.994;2023-09-19T03:10:27;0.38;;;0.38;;
29906;SDS011;16776;50.958;10.994;2023-09-19T03:12:55;0.30;;;0.30;;
29906;SDS011;16776;50.958;10.994;2023-09-19T03:15:21;0.30;;;0.30;;
29906;SDS011;16776;50.958;10.994;2023-09-19T03:17:48;0.52;;;0.52;;
29906;SDS011;16776;50.958;10.994;2023-09-19T03:20:15;0.32;;;0.30;;
29906;SDS011;16776;50.958;10.994;2023-09-19T03:22:42;0.68;;;0.40;;
29906;SDS011;16776;50.958;10.994;2023-09-19T03:25:09;0.40;;;0.40;;
29906;SDS011;16776;50.958;10.994;2023-09-19T03:27:40;0.30;;;0.30;;
29906;SDS011;16776;50.958;10.994;2023-09-19T03:30:07;0.60;;;0.50;;
29906;SDS011;16776;50.958;10.994;2023-09-19T03:32:34;2.45;;;0.40;;
29906;SDS011;16776;50.958;10.994;2023-09-19T03:35:03;0.95;;;0.30;;
29906;SDS011;16776;50.958;10.994;2023-09-19T03:37:31;0.40;;;0.30;;
29906;SDS011;16776;50.958;10.994;2023-09-19T03:39:58;0.30;;;0.25;;
29906;SDS011;16776;50.958;10.994;2023-09-19T03:42:29;0.38;;;0.38;;
29906;SDS011;16776;50.958;10.994;2023-09-19T03:44:57;0.50;;;0.30;;
29906;SDS011;16776;50.958;10.994;2023-09-19T03:47:24;0.45;;;0.43;;
29906;SDS011;16776;50.958;10.994;2023-09-19T03:49:51;0.47;;;0.47;;
29906;SDS011;16776;50.958;10.994;2023-09-19T03:52:17;0.30;;;0.30;;
29906;SDS011;16776;50.958;10.994;2023-09-19T03:54:44;0.30;;;0.30;;
29906;SDS011;16776;50.958;10.994;2023-09-19T03:57:10;0.40;;;0.40;;
29906;SDS011;16776;50.958;10.994;2023-09-19T03:59:40;0.55;;;0.40;;
29906;SDS011;16776;50.958;10.994;2023-09-19T04:02:09;0.45;;;0.45;;
29906;SDS011;16776;50.958;10.994;2023-09-19T04:04:46;0.30;;;0.30;;
29906;SDS011;16776;50.958;10.994;2023-09-19T04:07:13;0.70;;;0.30;;
29906;SDS011;16776;50.958;10.994;2023-09-19T04:09:40;1.85;;;0.60;;
29906;SDS011;16776;50.958;10.994;2023-09-19T04:12:07;0.70;;;0.50;;
29906;SDS011;16776;50.958;10.994;2023-09-19T04:14:33;0.28;;;0.28;;
29906;SDS011;16776;50.958;10.994;2023-09-19T04:17:00;0.50;;;0.30;;
29906;SDS011;16776;50.958;10.994;2023-09-19T04:19:28;0.68;;;0.40;;
29906;SDS011;16776;50.958;10.994;2023-09-19T04:21:55;0.40;;;0.30;;
29906;SDS011;16776;50.958;10.994;2023-09-19T04:24:21;0.40;;;0.40;;
29906;SDS011;16776;50.958;10.994;2023-09-19T04:26:48;1.95;;;0.70;;
29906;SDS011;16776;50.958;10.994;2023-09-19T04:29:15;1.20;;;0.68;;
29906;SDS011;16776;50.958;10.994;2023-09-19T04:31:44;1.80;;;0.70;;
29906;SDS011;16776;50.958;10.994;2023-09-19T04:34:11;1.17;;;0.57;;
29906;SDS011;16776;50.958;10.994;2023-09-19T04:36:43;0.47;;;0.43;;
29906;SDS011;16776;50.958;10.994;2023-09-19T04:39:10;3.95;;;0.70;;
29906;SDS011;16776;50.958;10.994;2023-09-19T04:41:38;0.63;;;0.40;;
29906;SDS011;16776;50.958;10.994;2023-09-19T04:44:06;0.50;;;0.40;;
29906;SDS011;16776;50.958;10.994;2023-09-19T04:46:33;0.50;;;0.30;;
29906;SDS011;16776;50.958;10.994;2023-09-19T04:49:00;1.30;;;0.38;;
29906;SDS011;16776;50.958;10.994;2023-09-19T04:51:27;0.40;;;0.20;;
29906;SDS011;16776;50.958;10.994;2023-09-19T04:53:59;0.45;;;0.38;;
29906;SDS011;16776;50.958;10.994;2023-09-19T04:56:26;0.30;;;0.30;;
29906;SDS011;16776;50.958;10.994;2023-09-19T04:58:53;0.57;;;0.30;;
29906;SDS011;16776;50.958;10.994;2023-09-19T05:01:20;1.15;;;0.30;;
29906;SDS011;16776;50.958;10.994;2023-09-19T05:03:47;0.77;;;0.30;;
29906;SDS011;16776;50.958;10.994;2023-09-19T05:06:17;0.77;;;0.38;;
29906;SDS011;16776;50.958;10.994;2023-09-19T05:08:46;0.30;;;0.25;;
29906;SDS011;16776;50.958;10.994;2023-09-19T05:11:16;0.50;;;0.40;;
29906;SDS011;16776;50.958;10.994;2023-09-19T05:13:43;0.50;;;0.38;;
29906;SDS011;16776;50.958;10.994;2023-09-19T05:16:09;0.38;;;0.30;;
29906;SDS011;16776;50.958;10.994;2023-09-19T05:18:36;0.77;;;0.47;;
29906;SDS011;16776;50.958;10.994;2023-09-19T05:21:03;0.30;;;0.28;;
29906;SDS011;16776;50.958;10.994;2023-09-19T05:23:29;0.28;;;0.20;;
29906;SDS011;16776;50.958;10.994;2023-09-19T05:25:56;0.57;;;0.40;;
29906;SDS011;16776;50.958;10.994;2023-09-19T05:28:26;0.63;;;0.45;;
29906;SDS011;16776;50.958;10.994;2023-09-19T05:30:52;1.35;;;0.20;;
29906;SDS011;16776;50.958;10.994;2023-09-19T05:33:22;0.20;;;0.20;;
29906;SDS011;16776;50.958;10.994;2023-09-19T05:35:52;0.70;;;0.35;;
29906;SDS011;16776;50.958;10.994;2023-09-19T05:38:19;0.30;;;0.30;;
29906;SDS011;16776;50.958;10.994;2023-09-19T05:40:45;0.30;;;0.30;;
29906;SDS011;16776;50.958;10.994;2023-09-19T05:43:12;0.60;;;0.47;;
29906;SDS011;16776;50.958;10.994;2023-09-19T05:45:40;1.98;;;0.30;;
29906;SDS011;16776;50.958;10.994;2023-09-19T05:48:07;0.38;;;0.30;;
29906;SDS011;16776;50.958;10.994;2023-09-19T05:50:36;0.40;;;0.30;;
29906;SDS011;16776;50.958;10.994;2023-09-19T05:53:03;0.40;;;0.40;;
29906;SDS011;16776;50.958;10.994;2023-09-19T05:55:30;0.52;;;0.43;;
29906;SDS011;16776;50.958;10.994;2023-09-19T05:57:57;0.50;;;0.38;;
29906;SDS011;16776;50.958;10.994;2023-09-19T06:00:24;0.47;;;0.38;;
29906;SDS011;16776;50.958;10.994;2023-09-19T06:02:54;0.55;;;0.40;;
29906;SDS011;16776;50.958;10.994;2023-09-19T06:05:22;0.60;;;0.35;;
29906;SDS011;16776;50.958;10.994;2023-09-19T06:07:49;1.20;;;0.40;;
29906;SDS011;16776;50.958;10.994;2023-09-19T06:10:17;0.50;;;0.30;;
29906;SDS011;16776;50.958;10.994;2023-09-19T06:12:46;0.63;;;0.63;;
29906;SDS011;16776;50.958;10.994;2023-09-19T06:15:13;0.52;;;0.22;;
29906;SDS011;16776;50.958;10.994;2023-09-19T06:17:42;0.30;;;0.30;;
29906;SDS011;16776;50.958;10.994;2023-09-19T06:20:10;0.63;;;0.38;;
29906;SDS011;16776;50.958;10.994;2023-09-19T06:22:40;0.28;;;0.20;;
29906;SDS011;16776;50.958;10.994;2023-09-19T06:25:07;0.85;;;0.38;;
29906;SDS011;16776;50.958;10.994;2023-09-19T06:27:36;1.02;;;0.40;;
29906;SDS011;16776;50.958;10.994;2023-09-19T06:30:03;0.40;;;0.30;;
29906;SDS011;16776;50.958;10.994;2023-09-19T06:32:32;0.55;;;0.32;;
29906;SDS011;16776;50.958;10.994;2023-09-19T06:34:59;0.20;;;0.20;;
29906;SDS011;16776;50.958;10.994;2023-09-19T06:37:28;1.27;;;0.60;;
29906;SDS011;16776;50.958;10.994;2023-09-19T06:39:54;1.17;;;0.38;;
29906;SDS011;16776;50.958;10.994;2023-09-19T06:42:22;0.68;;;0.40;;
29906;SDS011;16776;50.958;10.994;2023-09-19T06:44:48;0.77;;;0.40;;
29906;SDS011;16776;50.958;10.994;2023-09-19T06:47:15;0.30;;;0.20;;
29906;SDS011;16776;50.958;10.994;2023-09-19T06:49:42;0.52;;;0.52;;
29906;SDS011;16776;50.958;10.994;2023-09-19T06:52:09;0.50;;;0.40;;
29906;SDS011;16776;50.958;10.994;2023-09-19T06:54:37;0.32;;;0.25;;
29906;SDS011;16776;50.958;10.994;2023-09-19T06:57:05;1.27;;;0.47;;
29906;SDS011;16776;50.958;10.994;2023-09-19T06:59:34;0.35;;;0.28;;
29906;SDS011;16776;50.958;10.994;2023-09-19T07:02:02;0.50;;;0.50;;
29906;SDS011;16776;50.958;10.994;2023-09-19T07:04:31;0.50;;;0.30;;
29906;SDS011;16776;50.958;10.994;2023-09-19T07:06:57;0.30;;;0.30;;
29906;SDS011;16776;50.958;10.994;2023-09-19T07:09:24;0.30;;;0.30;;
29906;SDS011;16776;50.958;10.994;2023-09-19T07:11:53;0.30;;;0.30;;
29906;SDS011;16776;50.958;10.994;2023-09-19T07:14:20;1.75;;;0.25;;
29906;SDS011;16776;50.958;10.994;2023-09-19T07:16:46;0.47;;;0.30;;
29906;SDS011;16776;50.958;10.994;2023-09-19T07:19:15;0.60;;;0.30;;
29906;SDS011;16776;50.958;10.994;2023-09-19T07:21:42;0.90;;;0.35;;
29906;SDS011;16776;50.958;10.994;2023-09-19T07:24:09;0.93;;;0.57;;
29906;SDS011;16776;50.958;10.994;2023-09-19T07:26:35;1.08;;;0.45;;
29906;SDS011;16776;50.958;10.994;2023-09-19T07:29:03;0.25;;;0.22;;
29906;SDS011;16776;50.958;10.994;2023-09-19T07:31:33;0.80;;;0.40;;
29906;SDS011;16776;50.958;10.994;2023-09-19T07:34:00;3.00;;;0.40;;
29906;SDS011;16776;50.958;10.994;2023-09-19T07:36:28;0.30;;;0.30;;
29906;SDS011;16776;50.958;10.994;2023-09-19T07:38:55;0.30;;;0.20;;
29906;SDS011;16776;50.958;10.994;2023-09-19T07:41:23;1.70;;;0.82;;
29906;SDS011;16776;50.958;10.994;2023-09-19T07:43:50;0.52;;;0.30;;
29906;SDS011;16776;50.958;10.994;2023-09-19T07:46:18;1.17;;;0.30;;
29906;SDS011;16776;50.958;10.994;2023-09-19T07:48:46;0.73;;;0.30;;
29906;SDS011;16776;50.958;10.994;2023-09-19T07:51:14;0.43;;;0.38;;
29906;SDS011;16776;50.958;10.994;2023-09-19T07:53:41;2.58;;;0.32;;
29906;SDS011;16776;50.958;10.994;2023-09-19T07:56:09;2.53;;;0.60;;
29906;SDS011;16776;50.958;10.994;2023-09-19T07:58:38;0.47;;;0.28;;
29906;SDS011;16776;50.958;10.994;2023-09-19T08:01:09;0.30;;;0.30;;
29906;SDS011;16776;50.958;10.994;2023-09-19T08:03:40;0.40;;;0.13;;
29906;SDS011;16776;50.958;10.994;2023-09-19T08:06:08;0.63;;;0.63;;
29906;SDS011;16776;50.958;10.994;2023-09-19T08:08:35;0.80;;;0.50;;
29906;SDS011;16776;50.958;10.994;2023-09-19T08:11:03;0.30;;;0.30;;
29906;SDS011;16776;50.958;10.994;2023-09-19T08:13:36;0.28;;;0.10;;
29906;SDS011;16776;50.958;10.994;2023-09-19T08:16:06;1.85;;;0.45;;
29906;SDS011;16776;50.958;10.994;2023-09-19T08:18:33;1.30;;;0.50;;
29906;SDS011;16776;50.958;10.994;2023-09-19T08:21:04;0.30;;;0.30;;
29906;SDS011;16776;50.958;10.994;2023-09-19T08:23:33;0.30;;;0.30;;
29906;SDS011;16776;50.958;10.994;2023-09-19T08:26:00;0.50;;;0.45;;
29906;SDS011;16776;50.958;10.994;2023-09-19T08:28:31;0.52;;;0.20;;
29906;SDS011;16776;50.958;10.994;2023-09-19T08:31:01;0.90;;;0.57;;
29906;SDS011;16776;50.958;10.994;2023-09-19T08:33:29;0.50;;;0.38;;
29906;SDS011;16776;50.958;10.994;2023-09-19T08:35:57;2.13;;;0.47;;
29906;SDS011;16776;50.958;10.994;2023-09-19T08:38:25;1.92;;;0.40;;
29906;SDS011;16776;50.958;10.994;2023-09-19T08:40:56;0.80;;;0.40;;
29906;SDS011;16776;50.958;10.994;2023-09-19T08:43:24;0.50;;;0.30;;
29906;SDS011;16776;50.958;10.994;2023-09-19T08:45:52;1.45;;;0.57;;
29906;SDS011;16776;50.958;10.994;2023-09-19T08:48:25;1.45;;;0.60;;
29906;SDS011;16776;50.958;10.994;2023-09-19T08:50:56;1.35;;;0.38;;
29906;SDS011;16776;50.958;10.994;2023-09-19T08:55:58;1.40;;;0.47;;
29906;SDS011;16776;50.958;10.994;2023-09-19T08:58:27;0.98;;;0.57;;
29906;SDS011;16776;50.958;10.994;2023-09-19T09:01:00;1.08;;;0.40;;
29906;SDS011;16776;50.958;10.994;2023-09-19T09:03:29;0.50;;;0.50;;
29906;SDS011;16776;50.958;10.994;2023-09-19T09:05:59;0.63;;;0.38;;
29906;SDS011;16776;50.958;10.994;2023-09-19T09:08:27;0.55;;;0.50;;
29906;SDS011;16776;50.958;10.994;2023-09-19T09:10:58;0.65;;;0.25;;
29906;SDS011;16776;50.958;10.994;2023-09-19T09:13:28;0.43;;;0.43;;
29906;SDS011;16776;50.958;10.994;2023-09-19T09:15:56;0.80;;;0.60;;
29906;SDS011;16776;50.958;10.994;2023-09-19T09:18:24;0.38;;;0.38;;
29906;SDS011;16776;50.958;10.994;2023-09-19T09:20:50;0.80;;;0.40;;
29906;SDS011;16776;50.958;10.994;2023-09-19T09:23:18;0.55;;;0.45;;
29906;SDS011;16776;50.958;10.994;2023-09-19T09:25:51;1.23;;;0.40;;
29906;SDS011;16776;50.958;10.994;2023-09-19T09:28:22;0.55;;;0.40;;
29906;SDS011;16776;50.958;10.994;2023-09-19T09:30:50;1.25;;;0.57;;
29906;SDS011;16776;50.958;10.994;2023-09-19T09:33:17;2.35;;;0.50;;
29906;SDS011;16776;50.958;10.994;2023-09-19T09:38:42;2.13;;;0.50;;
29906;SDS011;16776;50.958;10.994;2023-09-19T09:41:12;1.13;;;0.75;;
29906;SDS011;16776;50.958;10.994;2023-09-19T09:43:52;2.60;;;0.70;;
29906;SDS011;16776;50.958;10.994;2023-09-19T09:46:20;0.60;;;0.60;;
29906;SDS011;16776;50.958;10.994;2023-09-19T09:49:05;1.27;;;0.70;;
29906;SDS011;16776;50.958;10.994;2023-09-19T09:51:44;0.85;;;0.40;;
29906;SDS011;16776;50.958;10.994;2023-09-19T09:54:22;0.70;;;0.50;;
29906;SDS011;16776;50.958;10.994;2023-09-19T09:56:54;1.17;;;0.55;;
29906;SDS011;16776;50.958;10.994;2023-09-19T10:02:21;0.40;;;0.40;;
29906;SDS011;16776;50.958;10.994;2023-09-19T10:04:54;0.80;;;0.40;;
29906;SDS011;16776;50.958;10.994;2023-09-19T10:07:40;1.00;;;0.40;;
29906;SDS011;16776;50.958;10.994;2023-09-19T10:10:16;1.20;;;0.60;;
29906;SDS011;16776;50.958;10.994;2023-09-19T10:13:04;1.73;;;0.52;;
29906;SDS011;16776;50.958;10.994;2023-09-19T10:15:33;0.40;;;0.40;;
29906;SDS011;16776;50.958;10.994;2023-09-19T10:18:01;0.82;;;0.43;;
29906;SDS011;16776;50.958;10.994;2023-09-19T10:20:32;0.68;;;0.50;;
29906;SDS011;16776;50.958;10.994;2023-09-19T10:23:06;0.52;;;0.43;;
29906;SDS011;16776;50.958;10.994;2023-09-19T10:25:38;0.43;;;0.43;;
29906;SDS011;16776;50.958;10.994;2023-09-19T10:28:07;1.73;;;0.65;;
29906;SDS011;16776;50.958;10.994;2023-09-19T10:30:37;0.88;;;0.43;;
29906;SDS011;16776;50.958;10.994;2023-09-19T10:33:07;1.02;;;0.73;;
29906;SDS011;16776;50.958;10.994;2023-09-19T10:35:34;1.98;;;0.50;;
29906;SDS011;16776;50.958;10.994;2023-09-19T10:38:05;0.88;;;0.50;;
29906;SDS011;16776;50.958;10.994;2023-09-19T10:40:34;0.98;;;0.52;;
29906;SDS011;16776;50.958;10.994;2023-09-19T10:43:02;0.50;;;0.50;;
29906;SDS011;16776;50.958;10.994;2023-09-19T10:45:32;1.80;;;0.50;;
29906;SDS011;16776;50.958;10.994;2023-09-19T10:48:00;1.83;;;0.80;;
29906;SDS011;16776;50.958;10.994;2023-09-19T10:50:30;0.98;;;0.70;;
29906;SDS011;16776;50.958;10.994;2023-09-19T10:53:00;1.75;;;0.90;;
29906;SDS011;16776;50.958;10.994;2023-09-19T10:55:32;0.85;;;0.57;;
29906;SDS011;16776;50.958;10.994;2023-09-19T10:58:01;0.95;;;0.77;;
29906;SDS011;16776;50.958;10.994;2023-09-19T11:03:19;1.38;;;0.70;;
29906;SDS011;16776;50.958;10.994;2023-09-19T11:06:01;0.65;;;0.65;;
29906;SDS011;16776;50.958;10.994;2023-09-19T11:08:54;0.70;;;0.50;;
29906;SDS011;16776;50.958;10.994;2023-09-19T11:11:41;1.27;;;0.85;;
29906;SDS011;16776;50.958;10.994;2023-09-19T11:14:30;1.50;;;0.80;;
29906;SDS011;16776;50.958;10.994;2023-09-19T11:25:43;2.30;;;0.88;;
29906;SDS011;16776;50.958;10.994;2023-09-19T11:28:31;1.13;;;0.80;;
29906;SDS011;16776;50.958;10.994;2023-09-19T11:34:40;1.73;;;0.80;;
29906;SDS011;16776;50.958;10.994;2023-09-19T11:43:37;1.05;;;0.98;;
29906;SDS011;16776;50.958;10.994;2023-09-19T11:46:06;1.67;;;0.90;;
29906;SDS011;16776;50.958;10.994;2023-09-19T11:48:43;1.60;;;1.13;;
29906;SDS011;16776;50.958;10.994;2023-09-19T11:51:18;1.83;;;1.00;;
29906;SDS011;16776;50.958;10.994;2023-09-19T11:53:48;1.63;;;0.80;;
29906;SDS011;16776;50.958;10.994;2023-09-19T11:56:15;1.73;;;0.93;;
29906;SDS011;16776;50.958;10.994;2023-09-19T11:58:44;1.25;;;0.82;;
29906;SDS011;16776;50.958;10.994;2023-09-19T12:01:12;0.90;;;0.80;;
29906;SDS011;16776;50.958;10.994;2023-09-19T12:03:46;1.83;;;1.33;;
29906;SDS011;16776;50.958;10.994;2023-09-19T12:06:16;1.40;;;1.20;;
29906;SDS011;16776;50.958;10.994;2023-09-19T12:08:43;2.28;;;1.08;;
29906;SDS011;16776;50.958;10.994;2023-09-19T12:11:15;1.10;;;0.75;;
29906;SDS011;16776;50.958;10.994;2023-09-19T12:13:45;1.20;;;1.10;;
29906;SDS011;16776;50.958;10.994;2023-09-19T12:16:14;2.15;;;1.00;;
29906;SDS011;16776;50.958;10.994;2023-09-19T12:18:42;1.35;;;0.90;;
29906;SDS011;16776;50.958;10.994;2023-09-19T12:21:28;0.98;;;0.90;;
29906;SDS011;16776;50.958;10.994;2023-09-19T12:24:03;1.20;;;1.10;;
29906;SDS011;16776;50.958;10.994;2023-09-19T12:26:37;2.55;;;0.98;;
29906;SDS011;16776;50.958;10.994;2023-09-19T12:29:10;1.27;;;1.00;;
29906;SDS011;16776;50.958;10.994;2023-09-19T12:31:52;1.80;;;1.30;;
29906;SDS011;16776;50.958;10.994;2023-09-19T12:34:23;1.27;;;1.10;;
29906;SDS011;16776;50.958;10.994;2023-09-19T12:39:38;0.98;;;0.70;;
29906;SDS011;16776;50.958;10.994;2023-09-19T12:42:07;2.03;;;1.13;;
29906;SDS011;16776;50.958;10.994;2023-09-19T12:44:36;1.75;;;1.30;;
29906;SDS011;16776;50.958;10.994;2023-09-19T12:47:10;2.17;;;1.05;;
29906;SDS011;16776;50.958;10.994;2023-09-19T12:52:39;1.35;;;1.10;;
29906;SDS011;16776;50.958;10.994;2023-09-19T12:55:08;1.95;;;1.30;;
29906;SDS011;16776;50.958;10.994;2023-09-19T12:57:54;1.95;;;1.05;;
29906;SDS011;16776;50.958;10.994;2023-09-19T13:00:30;2.63;;;1.25;;
29906;SDS011;16776;50.958;10.994;2023-09-19T13:03:09;2.17;;;1.27;;
29906;SDS011;16776;50.958;10.994;2023-09-19T13:05:46;2.00;;;1.10;;
29906;SDS011;16776;50.958;10.994;2023-09-19T13:08:18;1.58;;;1.02;;
29906;SDS011;16776;50.958;10.994;2023-09-19T13:13:46;1.45;;;1.10;;
29906;SDS011;16776;50.958;10.994;2023-09-19T13:16:14;1.70;;;0.90;;
29906;SDS011;16776;50.958;10.994;2023-09-19T13:18:45;1.13;;;1.02;;
29906;SDS011;16776;50.958;10.994;2023-09-19T13:21:15;1.15;;;0.93;;
29906;SDS011;16776;50.958;10.994;2023-09-19T13:23:50;1.70;;;1.27;;
29906;SDS011;16776;50.958;10.994;2023-09-19T13:26:17;1.13;;;0.98;;
29906;SDS011;16776;50.958;10.994;2023-09-19T13:28:45;1.48;;;0.85;;
29906;SDS011;16776;50.958;10.994;2023-09-19T13:31:13;2.05;;;1.27;;
29906;SDS011;16776;50.958;10.994;2023-09-19T13:33:43;1.70;;;1.42;;
29906;SDS011;16776;50.958;10.994;2023-09-19T13:36:10;2.50;;;1.40;;
29906;SDS011;16776;50.958;10.994;2023-09-19T13:38:38;2.17;;;1.20;;
29906;SDS011;16776;50.958;10.994;2023-09-19T13:41:06;2.55;;;1.10;;
29906;SDS011;16776;50.958;10.994;2023-09-19T13:43:32;1.63;;;1.13;;
29906;SDS011;16776;50.958;10.994;2023-09-19T13:45:59;1.73;;;1.20;;
29906;SDS011;16776;50.958;10.994;2023-09-19T13:48:26;2.15;;;1.20;;
29906;SDS011;16776;50.958;10.994;2023-09-19T13:50:55;2.28;;;1.30;;
29906;SDS011;16776;50.958;10.994;2023-09-19T13:53:21;1.75;;;0.80;;
29906;SDS011;16776;50.958;10.994;2023-09-19T13:55:48;1.67;;;1.10;;
29906;SDS011;16776;50.958;10.994;2023-09-19T13:58:16;2.17;;;0.90;;
29906;SDS011;16776;50.958;10.994;2023-09-19T14:00:43;1.88;;;1.48;;
29906;SDS011;16776;50.958;10.994;2023-09-19T14:03:09;1.95;;;1.38;;
29906;SDS011;16776;50.958;10.994;2023-09-19T14:05:37;2.63;;;1.35;;
29906;SDS011;16776;50.958;10.994;2023-09-19T14:08:04;1.80;;;1.38;;
29906;SDS011;16776;50.958;10.994;2023-09-19T14:10:31;2.90;;;1.13;;
29906;SDS011;16776;50.958;10.994;2023-09-19T14:12:58;2.90;;;1.17;;
29906;SDS011;16776;50.958;10.994;2023-09-19T14:15:27;1.08;;;0.90;;
29906;SDS011;16776;50.958;10.994;2023-09-19T14:17:56;1.80;;;1.00;;
29906;SDS011;16776;50.958;10.994;2023-09-19T14:20:26;1.77;;;0.95;;
29906;SDS011;16776;50.958;10.994;2023-09-19T14:22:55;2.08;;;1.15;;
29906;SDS011;16776;50.958;10.994;2023-09-19T14:25:24;2.92;;;0.80;;
29906;SDS011;16776;50.958;10.994;2023-09-19T14:27:51;1.13;;;0.80;;
29906;SDS011;16776;50.958;10.994;2023-09-19T14:30:17;2.75;;;1.05;;
29906;SDS011;16776;50.958;10.994;2023-09-19T14:32:45;1.80;;;0.82;;
29906;SDS011;16776;50.958;10.994;2023-09-19T14:35:12;1.88;;;0.98;;
29906;SDS011;16776;50.958;10.994;2023-09-19T14:37:40;2.10;;;0.98;;
29906;SDS011;16776;50.958;10.994;2023-09-19T14:40:07;0.95;;;0.82;;
29906;SDS011;16776;50.958;10.994;2023-09-19T14:42:40;1.05;;;0.75;;
29906;SDS011;16776;50.958;10.994;2023-09-19T14:45:09;1.45;;;1.00;;
29906;SDS011;16776;50.958;10.994;2023-09-19T14:47:36;3.10;;;1.30;;
29906;SDS011;16776;50.958;10.994;2023-09-19T14:50:05;1.00;;;0.90;;
29906;SDS011;16776;50.958;10.994;2023-09-19T14:52:33;2.95;;;1.27;;
29906;SDS011;16776;50.958;10.994;2023-09-19T14:55:01;1.88;;;0.98;;
29906;SDS011;16776;50.958;10.994;2023-09-19T14:57:29;0.88;;;0.82;;
29906;SDS011;16776;50.958;10.994;2023-09-19T14:59:56;2.22;;;1.42;;
29906;SDS011;16776;50.958;10.994;2023-09-19T15:02:23;1.30;;;1.20;;
29906;SDS011;16776;50.958;10.994;2023-09-19T15:04:51;2.13;;;0.98;;
29906;SDS011;16776;50.958;10.994;2023-09-19T15:07:19;1.67;;;0.90;;
29906;SDS011;16776;50.958;10.994;2023-09-19T15:09:46;1.73;;;1.23;;
29906;SDS011;16776;50.958;10.994;2023-09-19T15:12:12;2.90;;;1.20;;
29906;SDS011;16776;50.958;10.994;2023-09-19T15:14:40;1.58;;;1.13;;
29906;SDS011;16776;50.958;10.994;2023-09-19T15:17:07;1.27;;;0.70;;
29906;SDS011;16776;50.958;10.994;2023-09-19T15:19:33;1.55;;;1.10;;
29906;SDS011;16776;50.958;10.994;2023-09-19T15:22:00;1.65;;;1.00;;
29906;SDS011;16776;50.958;10.994;2023-09-19T15:24:28;2.25;;;1.15;;
29906;SDS011;16776;50.958;10.994;2023-09-19T15:26:56;3.15;;;1.50;;
29906;SDS011;16776;50.958;10.994;2023-09-19T15:29:22;1.95;;;1.08;;